Terminal Aerodrome Forecast
Issued by NWS Blacksburg, VA

Home | Current Version | Previous Version | Text Only | Print | Product List | Glossary On
Versions: 1 2 3 4 5 6 7 8 9 10 11 12 13
000
FTUS41 KRNK 191136
TAFDAN
TAF
KDAN 191136Z 1912/2012 06008KT 5SM -RA BR BKN050 OVC090
     FM191400 07010G16KT 5SM -RA BKN035 OVC080
     FM192100 08013G20KT 5SM -RA BR BKN035 OVC100
     FM200400 06010G16KT P6SM -RA BKN030 OVC150=

USA.gov is the U.S. government's official web portal to all federal, state and local government web resources and services.